createdAt,value
2023-04-01T00:02:31.444Z,9.27
2023-04-01T00:07:35.547Z,9.24
2023-04-01T00:12:39.709Z,9.26
2023-04-01T00:17:43.968Z,9.27
2023-04-01T00:22:47.986Z,9.29
2023-04-01T00:27:52.226Z,9.27
2023-04-01T00:32:56.394Z,9.26
2023-04-01T00:38:00.517Z,9.21
2023-04-01T00:43:04.636Z,9.18
2023-04-01T00:48:08.874Z,9.15
2023-04-01T00:53:12.953Z,9.12
2023-04-01T00:58:17.164Z,9.09
2023-04-01T01:03:21.387Z,9.08
2023-04-01T01:08:25.461Z,9.05
2023-04-01T01:13:29.659Z,9.03
2023-04-01T01:18:33.798Z,9.01
2023-04-01T01:23:37.948Z,8.98
2023-04-01T01:28:42.105Z,8.96
2023-04-01T01:33:46.264Z,8.97
2023-04-01T01:38:50.451Z,8.94
2023-04-01T01:43:54.585Z,8.93
2023-04-01T01:48:56.872Z,8.95
2023-04-01T01:54:01.018Z,8.99
2023-04-01T01:59:03.300Z,8.98
2023-04-01T02:04:07.495Z,8.95
2023-04-01T02:09:11.688Z,8.95
2023-04-01T02:14:15.798Z,8.98
2023-04-01T02:19:19.968Z,8.98
2023-04-01T02:24:24.136Z,8.98
2023-04-01T02:29:28.261Z,8.98
2023-04-01T02:34:32.425Z,8.96
2023-04-01T02:39:36.598Z,8.95
2023-04-01T02:44:40.757Z,8.96
2023-04-01T02:49:44.915Z,8.96
2023-04-01T02:54:49.060Z,8.95
2023-04-01T02:59:53.261Z,8.92
2023-04-01T03:04:57.536Z,8.90
2023-04-01T03:10:01.558Z,8.86
2023-04-01T03:15:11.143Z,8.83
2023-04-01T03:20:09.862Z,8.79
2023-04-01T03:25:14.067Z,8.79
2023-04-01T03:30:18.386Z,8.76
2023-04-01T03:35:22.366Z,8.73
2023-04-01T03:40:26.521Z,8.70
2023-04-01T03:45:28.990Z,8.68
2023-04-01T03:50:32.991Z,8.67
2023-04-01T03:55:35.366Z,8.65
2023-04-01T04:00:39.437Z,8.61
2023-04-01T04:05:43.572Z,8.60
2023-04-01T04:10:47.752Z,8.57
2023-04-01T04:15:51.955Z,8.59
2023-04-01T04:20:56.060Z,8.61
2023-04-01T04:26:00.309Z,8.62
2023-04-01T04:31:04.350Z,8.63
2023-04-01T04:36:08.657Z,8.66
2023-04-01T04:41:12.686Z,8.69
2023-04-01T04:46:16.936Z,8.74
2023-04-01T04:51:20.995Z,8.75
2023-04-01T04:56:25.203Z,8.80
2023-04-01T05:01:29.371Z,8.80
2023-04-01T05:06:33.535Z,8.80
2023-04-01T05:11:37.692Z,8.81
2023-04-01T05:16:41.865Z,8.80
2023-04-01T05:21:46.012Z,8.81
2023-04-01T05:26:50.176Z,8.80
2023-04-01T05:31:54.307Z,8.81
2023-04-01T05:36:58.496Z,8.83
2023-04-01T05:42:00.775Z,8.85
2023-04-01T05:47:04.928Z,8.89
2023-04-01T05:57:13.320Z,8.95
2023-04-01T06:02:17.392Z,8.97
2023-04-01T06:07:21.625Z,8.97
2023-04-01T06:12:25.705Z,8.99
2023-04-01T06:17:29.943Z,9.00
2023-04-01T06:22:34.058Z,9.03
2023-04-01T06:27:38.378Z,9.05
2023-04-01T06:32:42.441Z,9.06
2023-04-01T06:37:46.578Z,9.06
2023-04-01T06:42:50.706Z,9.05
2023-04-01T06:47:54.905Z,9.04
2023-04-01T06:52:59.029Z,9.04
2023-04-01T06:58:03.168Z,9.03
2023-04-01T07:03:07.408Z,9.04
2023-04-01T07:08:11.506Z,9.04
2023-04-01T07:13:15.676Z,9.04
2023-04-01T07:18:19.836Z,9.03
2023-04-01T07:23:24.002Z,9.09
2023-04-01T07:28:28.130Z,9.13
2023-04-01T07:33:30.422Z,9.18
2023-04-01T07:38:34.628Z,9.16
2023-04-01T07:43:36.884Z,9.20
2023-04-01T07:48:41.040Z,9.30
2023-04-01T07:53:43.313Z,9.31
2023-04-01T07:58:47.456Z,9.27
2023-04-01T08:03:51.864Z,9.30
2023-04-01T08:08:55.801Z,9.39
2023-04-01T08:13:59.925Z,9.55
2023-04-01T08:19:04.091Z,9.62
2023-04-01T08:24:08.275Z,9.55
2023-04-01T08:29:12.409Z,9.47
2023-04-01T08:34:16.600Z,9.44
2023-04-01T08:39:20.774Z,9.45
2023-04-01T08:44:24.929Z,9.42
2023-04-01T08:49:29.057Z,9.42
2023-04-01T08:54:33.190Z,9.39
2023-04-01T08:59:37.388Z,9.38
2023-04-01T09:04:41.528Z,9.34
2023-04-01T09:09:45.726Z,9.40
2023-04-01T09:14:49.892Z,9.48
2023-04-01T09:19:54.043Z,9.53
2023-04-01T09:24:58.250Z,9.56
2023-04-01T09:30:02.392Z,9.58
2023-04-01T09:35:06.535Z,9.54
2023-04-01T09:40:08.774Z,9.57
2023-04-01T09:45:13.004Z,9.47
2023-04-01T09:50:15.224Z,9.51
2023-04-01T09:55:19.465Z,9.48
2023-04-01T10:00:23.553Z,9.53
2023-04-01T10:05:27.761Z,9.64
2023-04-01T10:10:31.843Z,9.69
2023-04-01T10:15:36.393Z,9.84
2023-04-01T10:20:40.236Z,9.95
2023-04-01T10:25:44.350Z,9.99
2023-04-01T10:30:48.532Z,10.04
2023-04-01T10:35:52.738Z,10.07
2023-04-01T10:40:56.861Z,10.20
2023-04-01T10:46:01.054Z,10.28
2023-04-01T10:51:05.221Z,10.31
2023-04-01T10:56:09.305Z,10.37
2023-04-01T11:01:13.620Z,10.41
2023-04-01T11:06:17.641Z,10.31
2023-04-01T11:11:21.786Z,10.22
2023-04-01T11:16:24.130Z,10.35
2023-04-01T11:21:28.234Z,10.22
2023-04-01T11:26:32.411Z,10.22
2023-04-01T11:31:36.617Z,10.10
2023-04-01T11:36:38.976Z,10.14
2023-04-01T11:41:42.968Z,10.12
2023-04-01T11:46:45.290Z,10.14
2023-04-01T11:51:49.426Z,10.17
2023-04-01T11:56:53.607Z,10.21
2023-04-01T12:01:57.731Z,10.17
2023-04-01T12:07:01.918Z,10.19
2023-04-01T12:12:06.088Z,10.24
2023-04-01T12:17:10.242Z,10.33
2023-04-01T12:22:14.370Z,10.35
2023-04-01T12:27:18.564Z,10.37
2023-04-01T12:32:22.843Z,10.32
2023-04-01T12:37:26.887Z,10.26
2023-04-01T12:52:39.382Z,10.50
2023-04-01T12:57:41.631Z,10.66
2023-04-01T13:02:53.074Z,10.72
2023-04-01T13:08:04.021Z,10.80
2023-04-01T13:13:15.147Z,10.85
2023-04-01T13:18:26.285Z,10.87
2023-04-01T13:23:37.478Z,10.83
2023-04-01T13:28:46.760Z,10.56
2023-04-01T13:33:50.893Z,10.54
2023-04-01T13:38:55.079Z,10.54
2023-04-01T13:43:59.236Z,10.45
2023-04-01T13:49:03.420Z,10.33
2023-04-01T13:54:07.554Z,10.34
2023-04-01T13:59:11.820Z,10.25
2023-04-01T14:04:16.063Z,10.13
2023-04-01T14:09:20.131Z,10.04
2023-04-01T14:14:24.169Z,9.99
2023-04-01T14:19:28.368Z,9.98
2023-04-01T14:24:32.495Z,9.99
2023-04-01T14:29:36.654Z,9.97
2023-04-01T14:34:40.842Z,9.91
2023-04-01T14:39:45.005Z,9.93
2023-04-01T14:44:49.172Z,9.89
2023-04-01T14:49:53.517Z,9.88
2023-04-01T14:54:57.463Z,9.86
2023-04-01T15:00:01.676Z,9.86
2023-04-01T15:05:05.872Z,9.83
2023-04-01T15:10:09.939Z,9.86
2023-04-01T15:15:12.221Z,9.93
2023-04-01T15:20:16.388Z,9.90
2023-04-01T15:25:18.688Z,9.89
2023-04-01T15:30:22.823Z,9.88
2023-04-01T15:35:26.981Z,9.87
2023-04-01T15:40:31.170Z,9.85
2023-04-01T15:45:35.529Z,9.90
2023-04-01T15:50:39.462Z,9.90
2023-04-01T15:55:43.630Z,9.93
2023-04-01T16:00:52.746Z,9.90
2023-04-01T16:05:51.956Z,9.88
2023-04-01T16:10:56.089Z,9.89
2023-04-01T16:16:00.320Z,9.84
2023-04-01T16:21:04.443Z,9.84
2023-04-01T16:26:08.601Z,9.77
2023-04-01T16:31:12.786Z,9.74
2023-04-01T16:36:16.997Z,9.72
2023-04-01T16:41:21.136Z,9.72
2023-04-01T16:46:25.247Z,9.74
2023-04-01T16:51:29.432Z,9.71
2023-04-01T16:56:33.564Z,9.70
2023-04-01T17:01:37.883Z,9.68
2023-04-01T17:06:41.919Z,9.66
2023-04-01T17:11:44.154Z,9.63
2023-04-01T17:16:48.372Z,9.60
2023-04-01T17:21:50.582Z,9.59
2023-04-01T17:26:54.787Z,9.60
2023-04-01T17:31:58.945Z,9.58
2023-04-01T17:37:03.075Z,9.57
2023-04-01T17:42:07.276Z,9.56
2023-04-01T17:47:12.516Z,9.55
2023-04-01T17:52:15.594Z,9.53
2023-04-01T17:57:19.760Z,9.52
2023-04-01T18:07:28.034Z,9.50
2023-04-01T18:12:32.241Z,9.49
2023-04-01T18:17:36.420Z,9.50
2023-04-01T18:22:40.576Z,9.49
2023-04-01T18:27:44.698Z,9.47
2023-04-01T18:32:49.025Z,9.46
2023-04-01T18:37:53.008Z,9.44
2023-04-01T18:42:57.212Z,9.43
2023-04-01T18:48:01.372Z,9.45
2023-04-01T18:53:05.518Z,9.44
2023-04-01T18:58:09.789Z,9.44
2023-04-01T19:03:14.017Z,9.43
2023-04-01T19:08:17.980Z,9.41
2023-04-01T19:13:20.296Z,9.39
2023-04-01T19:18:24.396Z,9.38
2023-04-01T19:23:26.694Z,9.37
2023-04-01T19:28:30.866Z,9.36
2023-04-01T19:33:35.043Z,9.34
2023-04-01T19:38:39.192Z,9.32
2023-04-01T19:43:43.323Z,9.30
2023-04-01T19:48:47.539Z,9.24
2023-04-01T19:53:51.684Z,9.22
2023-04-01T19:58:55.814Z,9.23
2023-04-01T20:04:00.203Z,9.23
2023-04-01T20:09:04.168Z,9.23
2023-04-01T20:14:08.289Z,9.24
2023-04-01T20:19:12.517Z,9.21
2023-04-01T20:24:16.615Z,9.22
2023-04-01T20:29:20.784Z,9.19
2023-04-01T20:34:24.973Z,9.13
2023-04-01T20:39:29.142Z,9.07
2023-04-01T20:44:33.273Z,9.02
2023-04-01T20:49:37.415Z,8.98
2023-04-01T20:54:44.122Z,8.99
2023-04-01T20:59:45.774Z,8.97
2023-04-01T21:04:49.978Z,8.96
2023-04-01T21:09:52.200Z,8.86
2023-04-01T21:14:56.353Z,8.78
2023-04-01T21:19:58.643Z,8.66
2023-04-01T21:25:02.816Z,8.59
2023-04-01T21:30:06.979Z,8.48
2023-04-01T21:35:11.279Z,8.47
2023-04-01T21:40:15.289Z,8.44
2023-04-01T21:45:19.445Z,8.39
2023-04-01T21:50:23.605Z,8.37
2023-04-01T21:55:27.755Z,8.33
2023-04-01T22:00:31.917Z,8.18
2023-04-01T22:05:36.350Z,8.04
2023-04-01T22:10:40.242Z,7.99
2023-04-01T22:15:44.556Z,8.00
2023-04-01T22:20:48.590Z,7.97
2023-04-01T22:25:52.718Z,7.77
2023-04-01T22:30:56.923Z,7.72
2023-04-01T22:36:01.218Z,7.73
2023-04-01T22:41:05.213Z,7.63
2023-04-01T22:46:09.496Z,7.48
2023-04-01T22:51:13.566Z,7.37
2023-04-01T22:56:17.700Z,7.35
2023-04-01T23:01:21.954Z,7.34
2023-04-01T23:06:24.160Z,7.34
2023-04-01T23:11:28.304Z,7.27
2023-04-01T23:16:30.626Z,7.13
2023-04-01T23:21:34.757Z,7.02
2023-04-01T23:26:38.902Z,6.91
2023-04-01T23:31:43.143Z,6.74
2023-04-01T23:36:47.259Z,6.71
2023-04-01T23:41:51.779Z,6.71
2023-04-01T23:46:55.552Z,6.66
2023-04-01T23:51:59.767Z,6.64
2023-04-01T23:57:03.909Z,6.64
